sensor_id;sensor_type;location;lat;lon;timestamp;pressure;altitude;pressure_sealevel;temperature;humidity
75425;BME280;64007;50.632;13.700;2023-09-30T00:00:00;98305.28;;;19.03;77.53
75425;BME280;64007;50.632;13.700;2023-09-30T00:02:28;98306.28;;;19.02;77.76
75425;BME280;64007;50.632;13.700;2023-09-30T00:04:53;98327.53;;;18.97;78.28
75425;BME280;64007;50.632;13.700;2023-09-30T00:07:19;98327.38;;;18.90;78.93
75425;BME280;64007;50.632;13.700;2023-09-30T00:09:45;98323.66;;;18.91;78.68
75425;BME280;64007;50.632;13.700;2023-09-30T00:12:11;98289.78;;;18.81;79.31
75425;BME280;64007;50.632;13.700;2023-09-30T00:14:36;98312.69;;;18.76;79.70
75425;BME280;64007;50.632;13.700;2023-09-30T00:17:03;98327.84;;;18.77;79.91
75425;BME280;64007;50.632;13.700;2023-09-30T00:19:29;98324.47;;;18.75;79.80
75425;BME280;64007;50.632;13.700;2023-09-30T00:21:55;98302.59;;;18.70;80.07
75425;BME280;64007;50.632;13.700;2023-09-30T00:24:20;98306.66;;;18.66;80.30
75425;BME280;64007;50.632;13.700;2023-09-30T00:26:46;98313.72;;;18.67;80.39
75425;BME280;64007;50.632;13.700;2023-09-30T00:29:12;98311.34;;;18.64;80.51
75425;BME280;64007;50.632;13.700;2023-09-30T00:31:38;98329.00;;;18.59;80.30
75425;BME280;64007;50.632;13.700;2023-09-30T00:34:04;98308.28;;;18.59;80.15
75425;BME280;64007;50.632;13.700;2023-09-30T00:36:30;98317.38;;;18.58;80.18
75425;BME280;64007;50.632;13.700;2023-09-30T00:38:56;98336.91;;;18.60;80.53
75425;BME280;64007;50.632;13.700;2023-09-30T00:41:22;98317.03;;;18.53;80.89
75425;BME280;64007;50.632;13.700;2023-09-30T00:43:47;98327.16;;;18.51;80.88
75425;BME280;64007;50.632;13.700;2023-09-30T00:46:26;98312.66;;;18.44;81.41
75425;BME280;64007;50.632;13.700;2023-09-30T00:48:53;98319.38;;;18.40;81.85
75425;BME280;64007;50.632;13.700;2023-09-30T00:51:21;98320.03;;;18.34;81.86
75425;BME280;64007;50.632;13.700;2023-09-30T00:53:48;98316.34;;;18.35;81.33
75425;BME280;64007;50.632;13.700;2023-09-30T00:56:15;98315.16;;;18.37;82.02
75425;BME280;64007;50.632;13.700;2023-09-30T00:58:41;98308.25;;;18.35;82.60
75425;BME280;64007;50.632;13.700;2023-09-30T01:01:07;98309.59;;;18.31;82.58
75425;BME280;64007;50.632;13.700;2023-09-30T01:03:34;98316.00;;;18.30;82.56
75425;BME280;64007;50.632;13.700;2023-09-30T01:06:01;98319.53;;;18.30;83.29
75425;BME280;64007;50.632;13.700;2023-09-30T01:08:26;98340.56;;;18.35;83.07
75425;BME280;64007;50.632;13.700;2023-09-30T01:10:53;98353.69;;;18.30;83.47
75425;BME280;64007;50.632;13.700;2023-09-30T01:13:18;98362.75;;;18.21;85.11
75425;BME280;64007;50.632;13.700;2023-09-30T01:15:44;98359.34;;;18.10;86.38
75425;BME280;64007;50.632;13.700;2023-09-30T01:18:10;98385.59;;;18.08;87.57
75425;BME280;64007;50.632;13.700;2023-09-30T01:20:37;98379.19;;;18.09;87.80
75425;BME280;64007;50.632;13.700;2023-09-30T01:23:02;98362.69;;;18.04;89.00
75425;BME280;64007;50.632;13.700;2023-09-30T01:25:30;98377.31;;;18.02;90.05
75425;BME280;64007;50.632;13.700;2023-09-30T01:27:55;98381.16;;;17.99;89.73
75425;BME280;64007;50.632;13.700;2023-09-30T01:30:24;98388.88;;;17.94;90.32
75425;BME280;64007;50.632;13.700;2023-09-30T01:32:49;98377.94;;;17.96;90.91
75425;BME280;64007;50.632;13.700;2023-09-30T01:35:15;98389.50;;;17.88;91.11
75425;BME280;64007;50.632;13.700;2023-09-30T01:37:40;98393.13;;;17.71;93.79
75425;BME280;64007;50.632;13.700;2023-09-30T01:40:07;98410.53;;;17.84;93.02
75425;BME280;64007;50.632;13.700;2023-09-30T01:42:37;98407.66;;;17.86;93.28
75425;BME280;64007;50.632;13.700;2023-09-30T01:45:04;98410.00;;;17.81;94.60
75425;BME280;64007;50.632;13.700;2023-09-30T01:47:30;98417.75;;;17.84;96.00
75425;BME280;64007;50.632;13.700;2023-09-30T01:49:56;98417.75;;;17.84;95.24
75425;BME280;64007;50.632;13.700;2023-09-30T01:52:21;98417.47;;;17.95;93.64
75425;BME280;64007;50.632;13.700;2023-09-30T01:54:47;98429.91;;;17.96;93.94
75425;BME280;64007;50.632;13.700;2023-09-30T01:57:13;98433.59;;;17.95;94.62
75425;BME280;64007;50.632;13.700;2023-09-30T01:59:39;98438.97;;;17.95;95.87
75425;BME280;64007;50.632;13.700;2023-09-30T02:02:04;98435.94;;;17.90;99.67
75425;BME280;64007;50.632;13.700;2023-09-30T02:04:30;98446.69;;;17.90;97.89
75425;BME280;64007;50.632;13.700;2023-09-30T02:06:56;98449.38;;;17.90;96.69
75425;BME280;64007;50.632;13.700;2023-09-30T02:09:22;98457.09;;;17.85;98.98
75425;BME280;64007;50.632;13.700;2023-09-30T02:11:47;98464.47;;;17.83;99.48
75425;BME280;64007;50.632;13.700;2023-09-30T02:14:13;98464.47;;;17.83;99.98
75425;BME280;64007;50.632;13.700;2023-09-30T02:16:39;98467.16;;;17.83;100.00
75425;BME280;64007;50.632;13.700;2023-09-30T02:19:05;98466.97;;;17.76;100.00
75425;BME280;64007;50.632;13.700;2023-09-30T02:21:32;98462.28;;;17.78;100.00
75425;BME280;64007;50.632;13.700;2023-09-30T02:23:57;98475.50;;;17.72;100.00
75425;BME280;64007;50.632;13.700;2023-09-30T02:26:23;98475.00;;;17.68;100.00
75425;BME280;64007;50.632;13.700;2023-09-30T02:28:51;98466.97;;;17.59;100.00
75425;BME280;64007;50.632;13.700;2023-09-30T02:31:18;98491.00;;;17.60;100.00
75425;BME280;64007;50.632;13.700;2023-09-30T02:33:44;98518.00;;;17.50;99.69
75425;BME280;64007;50.632;13.700;2023-09-30T02:36:10;98501.97;;;17.41;97.78
75425;BME280;64007;50.632;13.700;2023-09-30T02:38:36;98502.06;;;17.31;99.11
75425;BME280;64007;50.632;13.700;2023-09-30T02:41:03;98527.78;;;17.34;97.40
75425;BME280;64007;50.632;13.700;2023-09-30T02:43:28;98523.38;;;17.15;99.09
75425;BME280;64007;50.632;13.700;2023-09-30T02:45:54;98527.59;;;17.00;99.72
75425;BME280;64007;50.632;13.700;2023-09-30T02:48:20;98542.94;;;16.89;96.21
75425;BME280;64007;50.632;13.700;2023-09-30T02:50:46;98529.34;;;16.91;96.69
75425;BME280;64007;50.632;13.700;2023-09-30T02:53:12;98529.44;;;16.81;96.67
75425;BME280;64007;50.632;13.700;2023-09-30T02:55:41;98527.50;;;16.64;97.54
75425;BME280;64007;50.632;13.700;2023-09-30T02:58:08;98522.69;;;16.68;98.56
75425;BME280;64007;50.632;13.700;2023-09-30T03:00:35;98515.38;;;16.60;94.65
75425;BME280;64007;50.632;13.700;2023-09-30T03:03:02;98516.03;;;16.44;96.80
75425;BME280;64007;50.632;13.700;2023-09-30T03:05:27;98505.59;;;16.32;95.80
75425;BME280;64007;50.632;13.700;2023-09-30T03:07:56;98537.81;;;16.32;95.82
75425;BME280;64007;50.632;13.700;2023-09-30T03:10:22;98516.50;;;16.30;94.79
75425;BME280;64007;50.632;13.700;2023-09-30T03:12:50;98499.84;;;16.26;95.37
75425;BME280;64007;50.632;13.700;2023-09-30T03:15:16;98504.53;;;16.24;94.81
75425;BME280;64007;50.632;13.700;2023-09-30T03:17:42;98520.91;;;16.21;95.07
75425;BME280;64007;50.632;13.700;2023-09-30T03:20:09;98523.03;;;16.18;95.55
75425;BME280;64007;50.632;13.700;2023-09-30T03:22:41;98534.78;;;16.17;94.89
75425;BME280;64007;50.632;13.700;2023-09-30T03:25:09;98552.31;;;16.11;96.29
75425;BME280;64007;50.632;13.700;2023-09-30T03:27:35;98555.13;;;16.10;96.03
75425;BME280;64007;50.632;13.700;2023-09-30T03:30:03;98578.03;;;16.04;97.00
75425;BME280;64007;50.632;13.700;2023-09-30T03:32:31;98580.56;;;15.96;94.06
75425;BME280;64007;50.632;13.700;2023-09-30T03:34:59;98552.09;;;15.76;94.56
75425;BME280;64007;50.632;13.700;2023-09-30T03:37:27;98571.03;;;15.64;95.15
75425;BME280;64007;50.632;13.700;2023-09-30T03:39:55;98574.94;;;15.60;96.07
75425;BME280;64007;50.632;13.700;2023-09-30T03:42:22;98557.16;;;15.59;96.54
75425;BME280;64007;50.632;13.700;2023-09-30T03:44:47;98567.59;;;15.43;98.25
75425;BME280;64007;50.632;13.700;2023-09-30T03:47:18;98568.88;;;15.39;97.25
75425;BME280;64007;50.632;13.700;2023-09-30T03:49:43;98585.09;;;15.28;98.34
75425;BME280;64007;50.632;13.700;2023-09-30T03:52:10;98581.97;;;15.23;98.74
75425;BME280;64007;50.632;13.700;2023-09-30T03:54:36;98573.66;;;15.26;99.30
75425;BME280;64007;50.632;13.700;2023-09-30T03:57:03;98592.97;;;15.29;98.41
75425;BME280;64007;50.632;13.700;2023-09-30T03:59:29;98610.47;;;15.24;98.60
75425;BME280;64007;50.632;13.700;2023-09-30T04:01:56;98574.06;;;15.12;98.44
75425;BME280;64007;50.632;13.700;2023-09-30T04:04:23;98594.91;;;15.08;97.09
75425;BME280;64007;50.632;13.700;2023-09-30T04:06:49;98590.13;;;15.12;93.63
75425;BME280;64007;50.632;13.700;2023-09-30T04:09:17;98592.09;;;15.10;91.36
75425;BME280;64007;50.632;13.700;2023-09-30T04:11:43;98590.13;;;15.12;90.99
75425;BME280;64007;50.632;13.700;2023-09-30T04:14:09;98603.09;;;15.07;90.67
75425;BME280;64007;50.632;13.700;2023-09-30T04:16:35;98592.69;;;15.23;86.92
75425;BME280;64007;50.632;13.700;2023-09-30T04:19:03;98617.47;;;15.05;88.64
75425;BME280;64007;50.632;13.700;2023-09-30T04:21:30;98604.47;;;14.91;88.20
75425;BME280;64007;50.632;13.700;2023-09-30T04:23:59;98607.16;;;14.91;88.89
75425;BME280;64007;50.632;13.700;2023-09-30T04:26:25;98614.75;;;14.86;90.84
75425;BME280;64007;50.632;13.700;2023-09-30T04:28:51;98627.84;;;14.89;90.21
75425;BME280;64007;50.632;13.700;2023-09-30T04:31:21;98619.66;;;14.81;89.68
75425;BME280;64007;50.632;13.700;2023-09-30T04:33:49;98644.91;;;14.88;93.15
75425;BME280;64007;50.632;13.700;2023-09-30T04:36:19;98634.91;;;14.90;88.59
75425;BME280;64007;50.632;13.700;2023-09-30T04:38:45;98625.34;;;14.97;91.14
75425;BME280;64007;50.632;13.700;2023-09-30T04:41:11;98645.34;;;14.93;89.54
75425;BME280;64007;50.632;13.700;2023-09-30T04:43:37;98652.53;;;14.93;88.81
75425;BME280;64007;50.632;13.700;2023-09-30T04:46:06;98659.16;;;14.98;90.63
75425;BME280;64007;50.632;13.700;2023-09-30T04:48:33;98668.91;;;14.99;91.35
75425;BME280;64007;50.632;13.700;2023-09-30T04:50:59;98673.53;;;14.97;91.17
75425;BME280;64007;50.632;13.700;2023-09-30T04:53:25;98687.66;;;14.99;94.97
75425;BME280;64007;50.632;13.700;2023-09-30T04:55:52;98695.13;;;15.05;93.35
75425;BME280;64007;50.632;13.700;2023-09-30T04:58:17;98691.59;;;14.95;94.39
75425;BME280;64007;50.632;13.700;2023-09-30T05:00:43;98686.22;;;14.95;93.99
75425;BME280;64007;50.632;13.700;2023-09-30T05:03:09;98705.25;;;14.92;94.72
75425;BME280;64007;50.632;13.700;2023-09-30T05:05:35;98704.88;;;15.07;92.16
75425;BME280;64007;50.632;13.700;2023-09-30T05:08:02;98713.59;;;14.99;91.08
75425;BME280;64007;50.632;13.700;2023-09-30T05:10:28;98723.72;;;14.95;93.39
75425;BME280;64007;50.632;13.700;2023-09-30T05:12:55;98726.81;;;14.91;93.12
75425;BME280;64007;50.632;13.700;2023-09-30T05:15:21;98727.38;;;14.94;93.33
75425;BME280;64007;50.632;13.700;2023-09-30T05:17:47;98722.28;;;14.91;93.38
75425;BME280;64007;50.632;13.700;2023-09-30T05:20:15;98742.03;;;14.90;93.87
75425;BME280;64007;50.632;13.700;2023-09-30T05:22:43;98747.91;;;14.84;92.89
75425;BME280;64007;50.632;13.700;2023-09-30T05:25:12;98755.47;;;14.79;91.83
75425;BME280;64007;50.632;13.700;2023-09-30T05:27:37;98756.00;;;14.73;91.30
75425;BME280;64007;50.632;13.700;2023-09-30T05:30:05;98756.00;;;14.73;90.67
75425;BME280;64007;50.632;13.700;2023-09-30T05:32:32;98747.53;;;14.68;90.98
75425;BME280;64007;50.632;13.700;2023-09-30T05:34:58;98760.19;;;14.66;90.04
75425;BME280;64007;50.632;13.700;2023-09-30T05:37:24;98767.22;;;14.67;90.53
75425;BME280;64007;50.632;13.700;2023-09-30T05:39:50;98771.56;;;14.58;91.03
75425;BME280;64007;50.632;13.700;2023-09-30T05:42:16;98771.41;;;14.60;91.00
75425;BME280;64007;50.632;13.700;2023-09-30T05:44:44;98765.81;;;14.63;89.48
75425;BME280;64007;50.632;13.700;2023-09-30T05:47:11;98764.09;;;14.62;89.88
75425;BME280;64007;50.632;13.700;2023-09-30T05:49:37;98762.41;;;14.61;89.84
75425;BME280;64007;50.632;13.700;2023-09-30T05:52:03;98772.84;;;14.64;89.74
75425;BME280;64007;50.632;13.700;2023-09-30T05:54:29;98773.97;;;14.61;90.31
75425;BME280;64007;50.632;13.700;2023-09-30T05:56:55;98786.25;;;14.64;90.62
75425;BME280;64007;50.632;13.700;2023-09-30T05:59:22;98781.88;;;14.63;90.14
75425;BME280;64007;50.632;13.700;2023-09-30T06:01:50;98780.16;;;14.62;89.79
75425;BME280;64007;50.632;13.700;2023-09-30T06:04:16;98771.41;;;14.60;89.78
75425;BME280;64007;50.632;13.700;2023-09-30T06:06:41;98777.88;;;14.57;89.74
75425;BME280;64007;50.632;13.700;2023-09-30T06:09:09;98777.63;;;14.60;89.94
75425;BME280;64007;50.632;13.700;2023-09-30T06:11:34;98781.41;;;14.58;92.62
75425;BME280;64007;50.632;13.700;2023-09-30T06:14:01;98778.28;;;14.53;92.35
75425;BME280;64007;50.632;13.700;2023-09-30T06:16:28;98786.75;;;14.58;91.06
75425;BME280;64007;50.632;13.700;2023-09-30T06:18:55;98780.50;;;14.68;91.10
75425;BME280;64007;50.632;13.700;2023-09-30T06:21:25;98784.47;;;14.74;89.46
75425;BME280;64007;50.632;13.700;2023-09-30T06:23:55;98789.56;;;14.77;87.19
75425;BME280;64007;50.632;13.700;2023-09-30T06:26:21;98795.13;;;14.85;86.33
75425;BME280;64007;50.632;13.700;2023-09-30T06:28:47;98799.28;;;14.78;84.91
75425;BME280;64007;50.632;13.700;2023-09-30T06:31:13;98803.66;;;14.79;85.06
75425;BME280;64007;50.632;13.700;2023-09-30T06:33:39;98813.75;;;14.87;83.73
75425;BME280;64007;50.632;13.700;2023-09-30T06:36:09;98832.81;;;14.93;85.49
75425;BME280;64007;50.632;13.700;2023-09-30T06:38:35;98839.31;;;15.00;84.73
75425;BME280;64007;50.632;13.700;2023-09-30T06:41:02;98838.59;;;14.98;83.15
75425;BME280;64007;50.632;13.700;2023-09-30T06:43:28;98835.56;;;14.82;82.43
75425;BME280;64007;50.632;13.700;2023-09-30T06:45:53;98834.22;;;14.77;82.08
75425;BME280;64007;50.632;13.700;2023-09-30T06:48:21;98844.31;;;14.84;82.25
75425;BME280;64007;50.632;13.700;2023-09-30T06:50:48;98850.16;;;14.78;79.81
75425;BME280;64007;50.632;13.700;2023-09-30T06:53:15;98852.09;;;14.76;78.94
75425;BME280;64007;50.632;13.700;2023-09-30T06:55:42;98850.16;;;14.78;79.11
75425;BME280;64007;50.632;13.700;2023-09-30T06:58:11;98855.28;;;14.81;78.50
75425;BME280;64007;50.632;13.700;2023-09-30T07:00:38;98868.16;;;14.76;75.92
75425;BME280;64007;50.632;13.700;2023-09-30T07:03:04;98866.75;;;14.72;77.46
75425;BME280;64007;50.632;13.700;2023-09-30T07:05:30;98859.69;;;14.71;79.04
75425;BME280;64007;50.632;13.700;2023-09-30T07:07:56;98858.06;;;14.80;78.67
75425;BME280;64007;50.632;13.700;2023-09-30T07:10:22;98851.47;;;14.84;78.77
75425;BME280;64007;50.632;13.700;2023-09-30T07:12:48;98856.78;;;14.95;79.23
75425;BME280;64007;50.632;13.700;2023-09-30T07:15:13;98865.84;;;15.03;76.45
75425;BME280;64007;50.632;13.700;2023-09-30T07:17:39;98870.94;;;15.07;73.89
75425;BME280;64007;50.632;13.700;2023-09-30T07:20:06;98887.91;;;15.17;74.67
75425;BME280;64007;50.632;13.700;2023-09-30T07:22:35;98886.44;;;15.24;71.48
75425;BME280;64007;50.632;13.700;2023-09-30T07:25:01;98873.53;;;15.18;72.16
75425;BME280;64007;50.632;13.700;2023-09-30T07:27:27;98882.56;;;15.17;72.62
75425;BME280;64007;50.632;13.700;2023-09-30T07:29:53;98880.97;;;15.35;73.20
75425;BME280;64007;50.632;13.700;2023-09-30T07:32:19;98892.78;;;15.53;73.17
75425;BME280;64007;50.632;13.700;2023-09-30T07:34:47;98887.94;;;15.47;71.80
75425;BME280;64007;50.632;13.700;2023-09-30T07:37:13;98886.16;;;15.57;71.36
75425;BME280;64007;50.632;13.700;2023-09-30T07:39:39;98885.91;;;15.60;70.98
75425;BME280;64007;50.632;13.700;2023-09-30T07:42:05;98888.66;;;15.70;70.62
75425;BME280;64007;50.632;13.700;2023-09-30T07:44:33;98901.38;;;15.78;70.85
75425;BME280;64007;50.632;13.700;2023-09-30T07:47:01;98899.84;;;15.85;69.44
75425;BME280;64007;50.632;13.700;2023-09-30T07:49:29;98895.50;;;15.93;68.31
75425;BME280;64007;50.632;13.700;2023-09-30T07:51:55;98888.88;;;15.97;69.07
75425;BME280;64007;50.632;13.700;2023-09-30T07:54:21;98873.69;;;16.08;67.99
75425;BME280;64007;50.632;13.700;2023-09-30T07:56:47;98881.75;;;16.17;68.00
75425;BME280;64007;50.632;13.700;2023-09-30T07:59:12;98882.75;;;16.26;67.93
75425;BME280;64007;50.632;13.700;2023-09-30T08:01:41;98874.28;;;16.30;66.48
75425;BME280;64007;50.632;13.700;2023-09-30T08:04:07;98870.63;;;16.41;67.38
75425;BME280;64007;50.632;13.700;2023-09-30T08:06:33;98874.59;;;16.56;66.95
75425;BME280;64007;50.632;13.700;2023-09-30T08:08:58;98881.69;;;16.67;64.77
75425;BME280;64007;50.632;13.700;2023-09-30T08:11:24;98893.00;;;16.80;64.67
75425;BME280;64007;50.632;13.700;2023-09-30T08:13:53;98902.59;;;17.02;63.52
75425;BME280;64007;50.632;13.700;2023-09-30T08:16:19;98899.75;;;17.23;64.55
75425;BME280;64007;50.632;13.700;2023-09-30T08:18:45;98891.13;;;17.10;63.46
75425;BME280;64007;50.632;13.700;2023-09-30T08:21:11;98906.69;;;17.16;63.38
75425;BME280;64007;50.632;13.700;2023-09-30T08:23:37;98911.91;;;17.17;62.46
75425;BME280;64007;50.632;13.700;2023-09-30T08:26:05;98903.44;;;17.22;64.25
75425;BME280;64007;50.632;13.700;2023-09-30T08:28:31;98906.53;;;17.27;64.16
75425;BME280;64007;50.632;13.700;2023-09-30T08:31:05;98911.38;;;17.23;62.93
75425;BME280;64007;50.632;13.700;2023-09-30T08:33:33;98902.56;;;17.31;62.76
75425;BME280;64007;50.632;13.700;2023-09-30T08:36:05;98904.56;;;17.29;62.24
75425;BME280;64007;50.632;13.700;2023-09-30T08:38:36;98904.56;;;17.29;61.87
75425;BME280;64007;50.632;13.700;2023-09-30T08:41:03;98899.75;;;17.23;60.69
75425;BME280;64007;50.632;13.700;2023-09-30T08:43:29;98904.56;;;17.29;59.37
75425;BME280;64007;50.632;13.700;2023-09-30T08:45:58;98912.19;;;17.14;61.36
75425;BME280;64007;50.632;13.700;2023-09-30T08:48:26;98920.13;;;17.16;61.58
75425;BME280;64007;50.632;13.700;2023-09-30T08:50:53;98924.47;;;17.36;61.85
75425;BME280;64007;50.632;13.700;2023-09-30T08:53:23;98920.03;;;17.54;60.30
75425;BME280;64007;50.632;13.700;2023-09-30T08:55:54;98922.44;;;17.58;60.38
75425;BME280;64007;50.632;13.700;2023-09-30T08:58:23;98923.44;;;17.57;60.38
75425;BME280;64007;50.632;13.700;2023-09-30T09:00:50;98920.06;;;17.45;58.94
75425;BME280;64007;50.632;13.700;2023-09-30T09:03:17;98917.53;;;17.43;58.88
75425;BME280;64007;50.632;13.700;2023-09-30T09:05:43;98929.97;;;17.44;60.26
75425;BME280;64007;50.632;13.700;2023-09-30T09:08:09;98934.78;;;17.50;59.52
75425;BME280;64007;50.632;13.700;2023-09-30T09:10:35;98930.38;;;17.49;59.56
75425;BME280;64007;50.632;13.700;2023-09-30T09:13:00;98923.19;;;17.40;60.55
75425;BME280;64007;50.632;13.700;2023-09-30T09:15:27;98932.81;;;17.43;60.17
75425;BME280;64007;50.632;13.700;2023-09-30T09:17:57;98931.38;;;17.48;60.52
75425;BME280;64007;50.632;13.700;2023-09-30T09:20:24;98927.66;;;17.59;60.81
75425;BME280;64007;50.632;13.700;2023-09-30T09:22:52;98942.13;;;17.68;61.04
75425;BME280;64007;50.632;13.700;2023-09-30T09:25:24;98937.44;;;17.60;57.95
75425;BME280;64007;50.632;13.700;2023-09-30T09:27:50;98944.94;;;17.57;59.78
75425;BME280;64007;50.632;13.700;2023-09-30T09:32:58;98944.94;;;17.57;57.33
75425;BME280;64007;50.632;13.700;2023-09-30T09:35:24;98946.66;;;17.67;58.89
75425;BME280;64007;50.632;13.700;2023-09-30T09:38:00;98946.34;;;17.80;58.62
75425;BME280;64007;50.632;13.700;2023-09-30T09:40:28;98943.50;;;17.81;59.90
75425;BME280;64007;50.632;13.700;2023-09-30T09:42:55;98939.00;;;17.63;57.58
75425;BME280;64007;50.632;13.700;2023-09-30T09:45:26;98931.22;;;17.60;57.48
75425;BME280;64007;50.632;13.700;2023-09-30T09:47:53;98939.56;;;17.57;60.06
75425;BME280;64007;50.632;13.700;2023-09-30T09:50:20;98938.47;;;17.49;58.33
75425;BME280;64007;50.632;13.700;2023-09-30T09:52:48;98945.00;;;17.37;58.91
75425;BME280;64007;50.632;13.700;2023-09-30T09:55:19;98947.28;;;17.32;58.17
75425;BME280;64007;50.632;13.700;2023-09-30T09:57:48;98948.69;;;17.27;57.55
75425;BME280;64007;50.632;13.700;2023-09-30T10:00:16;98938.81;;;17.08;57.53
75425;BME280;64007;50.632;13.700;2023-09-30T10:02:44;98959.16;;;17.01;57.57
75425;BME280;64007;50.632;13.700;2023-09-30T10:05:12;98949.28;;;17.01;58.69
75425;BME280;64007;50.632;13.700;2023-09-30T10:07:42;98949.84;;;17.24;57.79
75425;BME280;64007;50.632;13.700;2023-09-30T10:10:12;98937.09;;;17.16;56.71
75425;BME280;64007;50.632;13.700;2023-09-30T10:12:39;98931.16;;;17.13;56.82
75425;BME280;64007;50.632;13.700;2023-09-30T10:18:12;98934.25;;;17.37;56.77
75425;BME280;64007;50.632;13.700;2023-09-30T10:20:40;98928.56;;;17.40;58.44
75425;BME280;64007;50.632;13.700;2023-09-30T10:23:26;98928.50;;;17.60;58.97
75425;BME280;64007;50.632;13.700;2023-09-30T10:26:19;98933.88;;;17.79;58.10
75425;BME280;64007;50.632;13.700;2023-09-30T10:28:46;98925.06;;;17.87;56.33
75425;BME280;64007;50.632;13.700;2023-09-30T10:31:15;98925.06;;;17.87;53.04
75425;BME280;64007;50.632;13.700;2023-09-30T10:36:40;98927.47;;;17.90;52.67
75425;BME280;64007;50.632;13.700;2023-09-30T10:39:11;98916.25;;;17.94;55.08
75425;BME280;64007;50.632;13.700;2023-09-30T10:49:49;98923.66;;;18.37;51.15
75425;BME280;64007;50.632;13.700;2023-09-30T10:52:22;98923.03;;;18.53;51.77
75425;BME280;64007;50.632;13.700;2023-09-30T10:54:51;98930.09;;;18.54;52.03
75425;BME280;64007;50.632;13.700;2023-09-30T10:57:27;98930.09;;;18.54;52.07
75425;BME280;64007;50.632;13.700;2023-09-30T11:00:09;98933.19;;;18.59;52.79
75425;BME280;64007;50.632;13.700;2023-09-30T11:02:48;98938.28;;;18.62;52.13
75425;BME280;64007;50.632;13.700;2023-09-30T11:05:14;98935.16;;;18.67;52.50
75425;BME280;64007;50.632;13.700;2023-09-30T11:07:41;98940.44;;;18.76;50.99
75425;BME280;64007;50.632;13.700;2023-09-30T11:10:07;98952.41;;;18.92;51.24
75425;BME280;64007;50.632;13.700;2023-09-30T11:12:33;98952.47;;;19.00;52.77
75425;BME280;64007;50.632;13.700;2023-09-30T11:15:03;98950.59;;;19.18;52.30
75425;BME280;64007;50.632;13.700;2023-09-30T11:17:29;98945.63;;;19.05;49.99
75425;BME280;64007;50.632;13.700;2023-09-30T11:19:54;98933.38;;;19.11;50.28
75425;BME280;64007;50.632;13.700;2023-09-30T11:22:21;98931.28;;;19.05;50.02
75425;BME280;64007;50.632;13.700;2023-09-30T11:24:47;98930.34;;;19.32;52.71
75425;BME280;64007;50.632;13.700;2023-09-30T11:27:13;98928.09;;;19.63;52.25
75425;BME280;64007;50.632;13.700;2023-09-30T11:29:48;98930.69;;;19.81;50.02
75425;BME280;64007;50.632;13.700;2023-09-30T11:32:27;98908.00;;;19.99;50.16
75425;BME280;64007;50.632;13.700;2023-09-30T11:34:54;98920.59;;;20.17;49.61
75425;BME280;64007;50.632;13.700;2023-09-30T11:37:20;98912.47;;;20.09;47.58
75425;BME280;64007;50.632;13.700;2023-09-30T11:39:47;98911.09;;;20.05;47.83
75425;BME280;64007;50.632;13.700;2023-09-30T11:42:17;98915.19;;;20.17;49.35
75425;BME280;64007;50.632;13.700;2023-09-30T11:44:45;98914.53;;;20.23;51.33
75425;BME280;64007;50.632;13.700;2023-09-30T11:47:15;98906.97;;;20.34;52.17
75425;BME280;64007;50.632;13.700;2023-09-30T11:49:43;98908.50;;;20.37;47.66
75425;BME280;64007;50.632;13.700;2023-09-30T11:52:14;98905.91;;;20.78;52.58
75425;BME280;64007;50.632;13.700;2023-09-30T11:54:44;98898.50;;;21.04;48.88
75425;BME280;64007;50.632;13.700;2023-09-30T11:57:12;98906.97;;;20.93;45.85
75425;BME280;64007;50.632;13.700;2023-09-30T11:59:40;98896.81;;;20.87;47.84
75425;BME280;64007;50.632;13.700;2023-09-30T12:02:08;98905.59;;;21.05;46.37
75425;BME280;64007;50.632;13.700;2023-09-30T12:04:40;98893.28;;;20.94;44.57
75425;BME280;64007;50.632;13.700;2023-09-30T12:07:06;98901.50;;;20.77;46.49
75425;BME280;64007;50.632;13.700;2023-09-30T12:09:35;98894.41;;;20.76;44.67
75425;BME280;64007;50.632;13.700;2023-09-30T12:12:03;98896.47;;;20.82;43.18
75425;BME280;64007;50.632;13.700;2023-09-30T12:14:29;98894.66;;;21.23;45.21
75425;BME280;64007;50.632;13.700;2023-09-30T12:16:57;98891.41;;;21.52;43.93
75425;BME280;64007;50.632;13.700;2023-09-30T12:19:22;98894.34;;;21.89;42.00
75425;BME280;64007;50.632;13.700;2023-09-30T12:21:48;98883.06;;;22.25;41.68
75425;BME280;64007;50.632;13.700;2023-09-30T12:24:15;98875.41;;;22.60;41.89
75425;BME280;64007;50.632;13.700;2023-09-30T12:26:50;98884.22;;;23.07;41.26
75425;BME280;64007;50.632;13.700;2023-09-30T12:29:20;98882.84;;;23.49;39.79
75425;BME280;64007;50.632;13.700;2023-09-30T12:31:52;98896.84;;;23.38;38.12
75425;BME280;64007;50.632;13.700;2023-09-30T12:34:18;98887.84;;;23.23;36.60
75425;BME280;64007;50.632;13.700;2023-09-30T12:36:44;98902.13;;;23.54;38.83
75425;BME280;64007;50.632;13.700;2023-09-30T12:39:10;98886.09;;;23.67;37.26
75425;BME280;64007;50.632;13.700;2023-09-30T12:41:41;98880.75;;;24.03;38.07
75425;BME280;64007;50.632;13.700;2023-09-30T12:44:08;98873.88;;;24.22;36.17
75425;BME280;64007;50.632;13.700;2023-09-30T12:46:34;98869.56;;;24.13;37.49
75425;BME280;64007;50.632;13.700;2023-09-30T12:49:03;98874.22;;;25.06;40.13
75425;BME280;64007;50.632;13.700;2023-09-30T12:51:29;98865.00;;;25.91;39.58
75425;BME280;64007;50.632;13.700;2023-09-30T12:53:56;98864.69;;;26.07;34.15
75425;BME280;64007;50.632;13.700;2023-09-30T12:56:22;98857.28;;;26.36;33.29
75425;BME280;64007;50.632;13.700;2023-09-30T12:58:48;98853.59;;;26.57;33.99
75425;BME280;64007;50.632;13.700;2023-09-30T13:01:14;98862.84;;;26.75;32.73
75425;BME280;64007;50.632;13.700;2023-09-30T13:03:39;98856.28;;;26.50;31.70
75425;BME280;64007;50.632;13.700;2023-09-30T13:06:05;98852.34;;;26.72;31.61